BarenTS Sea — 9VAP5 — position and weather

sailwx.info

Track history (hours):
 
Tides and Currents Weather Stations Pressure Air Temp Water Temp Dewpoint Dewpoint Depression Visibility Wind Speed Wind Dir Waves Ship Positions

BarenTS Sea

Last reported at 2017-Aug-17 17:54 UTC. Time now 2017-Aug-23 06:16 UTC.
Position S 24°23' W 045°57'.

Length 248 m; draft 9.7 m.

Type: Tanker. MMSI: 563909000.

Date/timePositionNaut miles runAvg speedWind from/ knotsBaromVisibWave heightAir tempDewpointWater temp
2017-Aug-17 17:54S 24°23' W 045°57'511.1
2017-Aug-17 17:30S 24°23' W 046°02'511.1
2017-Aug-17 17:00S 24°23' W 046°08'510.9
2017-Aug-17 16:30S 24°22' W 046°14'611.0
2017-Aug-17 16:00S 24°19' W 046°19'510.1
2017-Aug-17 15:30S 24°14' W 046°21'510.7
2017-Aug-17 15:00S 24°09' W 046°22'510.1
2017-Aug-17 14:30S 24°04' W 046°22'4 8.9
2017-Aug-17 14:01S 23°60' W 046°20'3 4.9
2017-Aug-17 13:29S 23°58' W 046°18'5 5.8
2017-Aug-17 12:40S 23°55' W 046°22'5 0.1
2017-Aug-15 16:25S 23°58' W 046°18'2 5.0
2017-Aug-15 16:00S 23°60' W 046°19'4 8.0
2017-Aug-15 15:30S 24°03' W 046°21'3 6.1
2017-Aug-15 15:00S 24°06' W 046°23'3 5.3
2017-Aug-15 14:30S 24°08' W 046°24'2 3.1
2017-Aug-15 14:00S 24°09' W 046°25'0 0.6
2017-Aug-15 13:30S 24°10' W 046°25'0 0.5
2017-Aug-15 13:00S 24°10' W 046°25'0 0.5
2017-Aug-15 12:30S 24°10' W 046°25'0 0.5
2017-Aug-15 12:00S 24°10' W 046°24'0 0.5
2017-Aug-15 11:30S 24°10' W 046°24'0 0.5
2017-Aug-15 11:00S 24°10' W 046°24'0 0.5
2017-Aug-15 10:30S 24°10' W 046°24'1 1.5
2017-Aug-15 10:00S 24°11' W 046°24'1 1.9
2017-Aug-15 09:30S 24°12' W 046°25'2 4.1
2017-Aug-15 09:00S 24°12' W 046°27'2 4.1
2017-Aug-15 08:30S 24°12' W 046°29'1 2.4
2017-Aug-15 08:00S 24°12' W 046°30'0 0.6
2017-Aug-15 07:30S 24°12' W 046°30'0 0.5
2017-Aug-15 07:00S 24°12' W 046°30'0 0.7
2017-Aug-15 06:30S 24°12' W 046°29'0 0.7
2017-Aug-15 06:00S 24°12' W 046°29'0 0.7
2017-Aug-15 05:30S 24°12' W 046°29'0 0.7
2017-Aug-15 05:00S 24°12' W 046°28'0 0.8
2017-Aug-15 04:30S 24°12' W 046°28'0 0.8
2017-Aug-15 04:00S 24°12' W 046°27'0 0.8
2017-Aug-15 03:30S 24°12' W 046°27'0 0.7
2017-Aug-15 03:00S 24°12' W 046°26'0 0.8
2017-Aug-15 02:30S 24°12' W 046°26'0 0.8
2017-Aug-15 02:00S 24°12' W 046°26'0 0.7
2017-Aug-15 01:30S 24°12' W 046°25'0 0.8
2017-Aug-15 01:00S 24°12' W 046°25'0 1.0
2017-Aug-15 00:30S 24°12' W 046°24'2 3.1
2017-Aug-15 00:00S 24°11' W 046°26'2 3.4
2017-Aug-14 23:30S 24°11' W 046°28'2 3.4
2017-Aug-14 23:00S 24°10' W 046°29'0 0.6
2017-Aug-14 22:30S 24°10' W 046°30'0 0.8
2017-Aug-14 22:00S 24°10' W 046°29'0 0.8
2017-Aug-14 21:30S 24°10' W 046°29'0 0.8
2017-Aug-14 21:00S 24°10' W 046°28'0 0.9
2017-Aug-14 20:30S 24°11' W 046°28'0 1.0
2017-Aug-14 20:00S 24°11' W 046°27'0 1.0
2017-Aug-14 19:30S 24°11' W 046°27'0 1.0
2017-Aug-14 19:00S 24°11' W 046°26'1 1.0
2017-Aug-14 18:30S 24°12' W 046°26'1 1.1
2017-Aug-14 18:00S 24°12' W 046°26'1 1.1
2017-Aug-14 17:30S 24°12' W 046°25'1 1.1
2017-Aug-14 17:00S 24°13' W 046°25'1 1.1
2017-Aug-14 16:30S 24°13' W 046°25'1 1.1
2017-Aug-14 16:00S 24°14' W 046°24'1 1.4
2017-Aug-14 15:30S 24°14' W 046°24'1 1.3
2017-Aug-14 15:00S 24°15' W 046°24'1 2.7
2017-Aug-14 14:30S 24°14' W 046°25'1 2.6
2017-Aug-14 14:00S 24°12' W 046°25'1 2.7
2017-Aug-14 13:30S 24°11' W 046°26'1 3.0
2017-Aug-14 13:00S 24°10' W 046°27'1 2.2
2017-Aug-14 12:30S 24°10' W 046°28'1 1.0
2017-Aug-14 12:00S 24°10' W 046°28'0 0.8
2017-Aug-14 11:30S 24°10' W 046°28'1 1.2
2017-Aug-14 11:00S 24°11' W 046°28'1 1.2
2017-Aug-14 10:30S 24°11' W 046°27'1 1.2
2017-Aug-14 10:00S 24°12' W 046°27'1 1.1
2017-Aug-14 09:30S 24°12' W 046°27'1 1.2
2017-Aug-14 09:00S 24°13' W 046°26'1 1.2
2017-Aug-14 08:30S 24°13' W 046°26'1 1.1
2017-Aug-14 08:00S 24°14' W 046°25'1 1.2
2017-Aug-14 07:30S 24°14' W 046°25'1 1.1
2017-Aug-14 07:00S 24°14' W 046°24'1 1.1
2017-Aug-14 06:30S 24°15' W 046°24'1 1.1
2017-Aug-14 06:00S 24°15' W 046°23'0 0.8
2017-Aug-14 05:30S 24°15' W 046°24'1 2.5
2017-Aug-14 05:00S 24°15' W 046°25'1 2.4
2017-Aug-14 04:30S 24°14' W 046°26'1 2.3
2017-Aug-14 04:00S 24°13' W 046°27'1 2.6
2017-Aug-14 03:30S 24°12' W 046°28'1 2.3
2017-Aug-14 03:00S 24°12' W 046°29'1 1.7
2017-Aug-14 02:30S 24°12' W 046°30'1 1.1
2017-Aug-14 02:00S 24°12' W 046°30'1 1.1
2017-Aug-14 01:30S 24°12' W 046°29'1 1.2
2017-Aug-14 01:00S 24°13' W 046°29'1 1.4
2017-Aug-14 00:30S 24°13' W 046°28'1 1.6
2017-Aug-14 00:00S 24°13' W 046°28'1 1.5
2017-Aug-13 23:30S 24°14' W 046°27'1 1.7
2017-Aug-13 23:00S 24°14' W 046°26'1 1.6
2017-Aug-13 22:30S 24°14' W 046°25'1 1.7
2017-Aug-13 22:00S 24°15' W 046°24'1 1.8
2017-Aug-13 21:30S 24°15' W 046°23'1 2.0
2017-Aug-13 21:00S 24°15' W 046°22'0 0.9
2017-Aug-13 20:30S 24°15' W 046°22'1 2.1
2017-Aug-13 20:00S 24°14' W 046°23'1 1.6
2017-Aug-13 19:30S 24°13' W 046°23'1 1.6
2017-Aug-13 19:00S 24°12' W 046°23'1 1.2
2017-Aug-13 18:30S 24°12' W 046°24'1 1.7
2017-Aug-13 18:00S 24°11' W 046°24'1 1.7
2017-Aug-13 17:30S 24°11' W 046°25'1 1.4
2017-Aug-13 17:00S 24°10' W 046°26'1 1.5
2017-Aug-13 16:30S 24°10' W 046°26'1 1.9
2017-Aug-13 16:00S 24°09' W 046°27'1 1.8
2017-Aug-13 15:30S 24°09' W 046°28'1 1.6
2017-Aug-13 15:00S 24°09' W 046°27'1 1.5
2017-Aug-13 14:30S 24°10' W 046°26'1 1.6
2017-Aug-13 14:00S 24°10' W 046°26'0 0.9
2017-Aug-13 13:30S 24°10' W 046°25'1 2.0
2017-Aug-13 13:00S 24°10' W 046°26'1 1.4
2017-Aug-13 12:30S 24°11' W 046°25'1 1.5
2017-Aug-13 12:00S 24°11' W 046°25'1 1.3
2017-Aug-13 11:30S 24°11' W 046°24'1 1.5
2017-Aug-13 11:00S 24°12' W 046°24'2 3.6
2017-Aug-13 10:30S 24°14' W 046°24'2 4.3
2017-Aug-13 10:00S 24°16' W 046°24'3 5.3
2017-Aug-13 09:30S 24°18' W 046°25'3 5.0
2017-Aug-13 09:00S 24°21' W 046°26'1 2.9
2017-Aug-13 08:30S 24°22' W 046°26'1 2.8
2017-Aug-13 08:00S 24°22' W 046°25'1 2.6
2017-Aug-13 07:30S 24°21' W 046°23'1 2.7
2017-Aug-13 07:00S 24°21' W 046°22'1 2.7
2017-Aug-13 06:30S 24°20' W 046°20'1 2.7
2017-Aug-13 06:00S 24°20' W 046°19'1 2.6
2017-Aug-13 05:30S 24°19' W 046°18'1 2.7
2017-Aug-13 05:00S 24°19' W 046°16'1 3.0
2017-Aug-13 04:30S 24°18' W 046°15'3 6.4
2017-Aug-13 04:00S 24°15' W 046°13'2 3.8
2017-Aug-13 03:30S 24°15' W 046°15'2 4.1
2017-Aug-13 03:00S 24°15' W 046°17'2 2.9
2017-Aug-13 02:26S 24°14' W 046°18'0 0.4
2017-Aug-13 01:56S 24°14' W 046°19'0 0.1
2017-Aug-13 01:28S 24°14' W 046°19'0 0.2
2017-Aug-13 00:58S 24°14' W 046°19'0 0.1
2017-Aug-13 00:28S 24°14' W 046°19'0 0.2
2017-Aug-12 23:58S 24°14' W 046°19'0 0.2
2017-Aug-12 23:28S 24°14' W 046°19'0 0.2
2017-Aug-12 22:58S 24°14' W 046°19'0 0.2
2017-Aug-12 22:28S 24°14' W 046°19'0 0.1
2017-Aug-12 21:58S 24°14' W 046°19'0 0.7
2017-Aug-12 21:25S 24°14' W 046°18'0 0.6
2017-Aug-12 20:55S 24°14' W 046°18'0 0.1
2017-Aug-12 20:25S 24°14' W 046°18'0 0.5
2017-Aug-12 19:55S 24°14' W 046°18'0 0.2
2017-Aug-12 19:22S 24°14' W 046°19'0 0.2
2017-Aug-12 18:58S 24°14' W 046°19'0 0.5
2017-Aug-12 18:25S 24°14' W 046°19'0 0.5
2017-Aug-12 17:58S 24°14' W 046°19'0 0.2
2017-Aug-12 17:28S 24°14' W 046°19'0 0.6
2017-Aug-12 16:51S 24°14' W 046°19'0 0.4
2017-Aug-12 16:30S 24°14' W 046°19'0 0.4
2017-Aug-12 16:00S 24°14' W 046°18'0 1.0
2017-Aug-12 15:30S 24°14' W 046°18'0 0.1
2017-Aug-12 15:00S 24°14' W 046°18'0 0.0
2017-Aug-12 14:30S 24°14' W 046°18'0 0.0
2017-Aug-12 14:00S 24°14' W 046°18'0 0.0
2017-Aug-12 13:30S 24°14' W 046°18'0 0.1
2017-Aug-12 13:00S 24°14' W 046°18'0 0.0
2017-Aug-12 12:30S 24°14' W 046°18'0 0.0
2017-Aug-12 12:00S 24°14' W 046°18'0 0.0
2017-Aug-12 11:30S 24°14' W 046°18'0 0.0
2017-Aug-12 11:00S 24°14' W 046°18'0 0.1
2017-Aug-12 10:30S 24°14' W 046°18'0 0.1
2017-Aug-12 10:00S 24°14' W 046°18'0 0.1
2017-Aug-12 09:30S 24°14' W 046°18'0 0.0
2017-Aug-12 09:00S 24°14' W 046°18'0 0.1
2017-Aug-12 08:30S 24°14' W 046°18'0 0.0
2017-Aug-12 08:00S 24°14' W 046°18'0 0.0
2017-Aug-12 07:30S 24°14' W 046°18'0 0.0
2017-Aug-12 07:00S 24°14' W 046°18'0 0.0
2017-Aug-12 06:30S 24°14' W 046°18'0 0.0
2017-Aug-12 06:00S 24°14' W 046°18'0 0.0
2017-Aug-12 05:30S 24°14' W 046°18'0 0.0
2017-Aug-12 05:00S 24°14' W 046°18'0 0.0
2017-Aug-12 04:30S 24°14' W 046°18'0 0.0
2017-Aug-12 04:00S 24°14' W 046°18'0 0.0
2017-Aug-12 03:30S 24°14' W 046°18'0 0.1
2017-Aug-12 03:00S 24°14' W 046°18'0 0.1
2017-Aug-12 02:30S 24°14' W 046°18'0 0.1
2017-Aug-12 02:00S 24°14' W 046°18'0 0.1
2017-Aug-12 01:30S 24°14' W 046°18'0 0.1
2017-Aug-12 01:00S 24°14' W 046°18'0 0.0
2017-Aug-12 00:30S 24°14' W 046°18'0 0.1
2017-Aug-12 00:00S 24°14' W 046°18'0 0.0
2017-Aug-11 23:30S 24°14' W 046°18'0 0.1
2017-Aug-11 23:00S 24°14' W 046°18'0 0.1
2017-Aug-11 22:30S 24°14' W 046°18'0 0.1
2017-Aug-11 22:00S 24°14' W 046°18'0 0.1
2017-Aug-11 21:30S 24°14' W 046°18'0 0.1
2017-Aug-11 21:00S 24°14' W 046°18'0 0.1
2017-Aug-11 20:30S 24°14' W 046°18'0 0.0
2017-Aug-11 20:00S 24°14' W 046°18'0 0.0
2017-Aug-11 19:30S 24°14' W 046°18'0 0.1
2017-Aug-11 18:55S 24°14' W 046°18'0 0.0
2017-Aug-11 18:28S 24°14' W 046°18'0 0.0
2017-Aug-11 17:58S 24°14' W 046°18'0 0.3
2017-Aug-11 17:30S 24°14' W 046°18'1 1.0
2017-Aug-11 17:00S 24°15' W 046°17'0 0.5
2017-Aug-11 16:30S 24°14' W 046°18'0 0.2
2017-Aug-11 15:58S 24°14' W 046°18'0 0.0
2017-Aug-11 15:28S 24°14' W 046°18'0 0.1
2017-Aug-11 14:58S 24°14' W 046°18'0 0.0
2017-Aug-11 14:25S 24°14' W 046°18'0 0.0
2017-Aug-11 13:25S 24°14' W 046°18'0 0.1
2017-Aug-11 12:58S 24°14' W 046°18'0 0.0
2017-Aug-11 12:28S 24°14' W 046°18'0 0.0
2017-Aug-11 11:55S 24°14' W 046°18'0 0.0
2017-Aug-11 11:22S 24°14' W 046°18'0 0.2
2017-Aug-11 10:58S 24°14' W 046°17'0 0.4
2017-Aug-11 10:30S 24°14' W 046°17'2 3.2
2017-Aug-11 10:00S 24°16' W 046°18'5 9.1
2017-Aug-11 09:30S 24°20' W 046°21'5 9.8
2017-Aug-11 09:00S 24°24' W 046°20'611.6
2017-Aug-11 08:30S 24°29' W 046°16'611.3
2017-Aug-11 08:00S 24°31' W 046°10'1411.7
2017-Aug-11 06:51S 24°26' W 045°56'  
Track history (hours):
 
Tides and Currents Weather Stations Pressure Air Temp Water Temp Dewpoint Dewpoint Depression Visibility Wind Speed Wind Dir Waves Ship Positions

BarenTS Sea

Last reported at 2017-Aug-17 17:54 UTC. Time now 2017-Aug-23 06:16 UTC.
Position S 24°23' W 045°57'.

Length 248 m; draft 9.7 m.

Type: Tanker. MMSI: 563909000.

Date/timePositionNaut miles runAvg speedWind from/ knotsBaromVisibWave heightAir tempDewpointWater temp
2017-Aug-17 17:54S 24°23' W 045°57'511.1
2017-Aug-17 17:30S 24°23' W 046°02'511.1
2017-Aug-17 17:00S 24°23' W 046°08'510.9
2017-Aug-17 16:30S 24°22' W 046°14'611.0
2017-Aug-17 16:00S 24°19' W 046°19'510.1
2017-Aug-17 15:30S 24°14' W 046°21'510.7
2017-Aug-17 15:00S 24°09' W 046°22'510.1
2017-Aug-17 14:30S 24°04' W 046°22'4 8.9
2017-Aug-17 14:01S 23°60' W 046°20'3 4.9
2017-Aug-17 13:29S 23°58' W 046°18'5 5.8
2017-Aug-17 12:40S 23°55' W 046°22'5 0.1
2017-Aug-15 16:25S 23°58' W 046°18'2 5.0
2017-Aug-15 16:00S 23°60' W 046°19'4 8.0
2017-Aug-15 15:30S 24°03' W 046°21'3 6.1
2017-Aug-15 15:00S 24°06' W 046°23'3 5.3
2017-Aug-15 14:30S 24°08' W 046°24'2 3.1
2017-Aug-15 14:00S 24°09' W 046°25'0 0.6
2017-Aug-15 13:30S 24°10' W 046°25'0 0.5
2017-Aug-15 13:00S 24°10' W 046°25'0 0.5
2017-Aug-15 12:30S 24°10' W 046°25'0 0.5
2017-Aug-15 12:00S 24°10' W 046°24'0 0.5
2017-Aug-15 11:30S 24°10' W 046°24'0 0.5
2017-Aug-15 11:00S 24°10' W 046°24'0 0.5
2017-Aug-15 10:30S 24°10' W 046°24'1 1.5
2017-Aug-15 10:00S 24°11' W 046°24'1 1.9
2017-Aug-15 09:30S 24°12' W 046°25'2 4.1
2017-Aug-15 09:00S 24°12' W 046°27'2 4.1
2017-Aug-15 08:30S 24°12' W 046°29'1 2.4
2017-Aug-15 08:00S 24°12' W 046°30'0 0.6
2017-Aug-15 07:30S 24°12' W 046°30'0 0.5
2017-Aug-15 07:00S 24°12' W 046°30'0 0.7
2017-Aug-15 06:30S 24°12' W 046°29'0 0.7
2017-Aug-15 06:00S 24°12' W 046°29'0 0.7
2017-Aug-15 05:30S 24°12' W 046°29'0 0.7
2017-Aug-15 05:00S 24°12' W 046°28'0 0.8
2017-Aug-15 04:30S 24°12' W 046°28'0 0.8
2017-Aug-15 04:00S 24°12' W 046°27'0 0.8
2017-Aug-15 03:30S 24°12' W 046°27'0 0.7
2017-Aug-15 03:00S 24°12' W 046°26'0 0.8
2017-Aug-15 02:30S 24°12' W 046°26'0 0.8
2017-Aug-15 02:00S 24°12' W 046°26'0 0.7
2017-Aug-15 01:30S 24°12' W 046°25'0 0.8
2017-Aug-15 01:00S 24°12' W 046°25'0 1.0
2017-Aug-15 00:30S 24°12' W 046°24'2 3.1
2017-Aug-15 00:00S 24°11' W 046°26'2 3.4
2017-Aug-14 23:30S 24°11' W 046°28'2 3.4
2017-Aug-14 23:00S 24°10' W 046°29'0 0.6
2017-Aug-14 22:30S 24°10' W 046°30'0 0.8
2017-Aug-14 22:00S 24°10' W 046°29'0 0.8
2017-Aug-14 21:30S 24°10' W 046°29'0 0.8
2017-Aug-14 21:00S 24°10' W 046°28'0 0.9
2017-Aug-14 20:30S 24°11' W 046°28'0 1.0
2017-Aug-14 20:00S 24°11' W 046°27'0 1.0
2017-Aug-14 19:30S 24°11' W 046°27'0 1.0
2017-Aug-14 19:00S 24°11' W 046°26'1 1.0
2017-Aug-14 18:30S 24°12' W 046°26'1 1.1
2017-Aug-14 18:00S 24°12' W 046°26'1 1.1
2017-Aug-14 17:30S 24°12' W 046°25'1 1.1
2017-Aug-14 17:00S 24°13' W 046°25'1 1.1
2017-Aug-14 16:30S 24°13' W 046°25'1 1.1
2017-Aug-14 16:00S 24°14' W 046°24'1 1.4
2017-Aug-14 15:30S 24°14' W 046°24'1 1.3
2017-Aug-14 15:00S 24°15' W 046°24'1 2.7
2017-Aug-14 14:30S 24°14' W 046°25'1 2.6
2017-Aug-14 14:00S 24°12' W 046°25'1 2.7
2017-Aug-14 13:30S 24°11' W 046°26'1 3.0
2017-Aug-14 13:00S 24°10' W 046°27'1 2.2
2017-Aug-14 12:30S 24°10' W 046°28'1 1.0
2017-Aug-14 12:00S 24°10' W 046°28'0 0.8
2017-Aug-14 11:30S 24°10' W 046°28'1 1.2
2017-Aug-14 11:00S 24°11' W 046°28'1 1.2
2017-Aug-14 10:30S 24°11' W 046°27'1 1.2
2017-Aug-14 10:00S 24°12' W 046°27'1 1.1
2017-Aug-14 09:30S 24°12' W 046°27'1 1.2
2017-Aug-14 09:00S 24°13' W 046°26'1 1.2
2017-Aug-14 08:30S 24°13' W 046°26'1 1.1
2017-Aug-14 08:00S 24°14' W 046°25'1 1.2
2017-Aug-14 07:30S 24°14' W 046°25'1 1.1
2017-Aug-14 07:00S 24°14' W 046°24'1 1.1
2017-Aug-14 06:30S 24°15' W 046°24'1 1.1
2017-Aug-14 06:00S 24°15' W 046°23'0 0.8
2017-Aug-14 05:30S 24°15' W 046°24'1 2.5
2017-Aug-14 05:00S 24°15' W 046°25'1 2.4
2017-Aug-14 04:30S 24°14' W 046°26'1 2.3
2017-Aug-14 04:00S 24°13' W 046°27'1 2.6
2017-Aug-14 03:30S 24°12' W 046°28'1 2.3
2017-Aug-14 03:00S 24°12' W 046°29'1 1.7
2017-Aug-14 02:30S 24°12' W 046°30'1 1.1
2017-Aug-14 02:00S 24°12' W 046°30'1 1.1
2017-Aug-14 01:30S 24°12' W 046°29'1 1.2
2017-Aug-14 01:00S 24°13' W 046°29'1 1.4
2017-Aug-14 00:30S 24°13' W 046°28'1 1.6
2017-Aug-14 00:00S 24°13' W 046°28'1 1.5
2017-Aug-13 23:30S 24°14' W 046°27'1 1.7
2017-Aug-13 23:00S 24°14' W 046°26'1 1.6
2017-Aug-13 22:30S 24°14' W 046°25'1 1.7
2017-Aug-13 22:00S 24°15' W 046°24'1 1.8
2017-Aug-13 21:30S 24°15' W 046°23'1 2.0
2017-Aug-13 21:00S 24°15' W 046°22'0 0.9
2017-Aug-13 20:30S 24°15' W 046°22'1 2.1
2017-Aug-13 20:00S 24°14' W 046°23'1 1.6
2017-Aug-13 19:30S 24°13' W 046°23'1 1.6
2017-Aug-13 19:00S 24°12' W 046°23'1 1.2
2017-Aug-13 18:30S 24°12' W 046°24'1 1.7
2017-Aug-13 18:00S 24°11' W 046°24'1 1.7
2017-Aug-13 17:30S 24°11' W 046°25'1 1.4
2017-Aug-13 17:00S 24°10' W 046°26'1 1.5
2017-Aug-13 16:30S 24°10' W 046°26'1 1.9
2017-Aug-13 16:00S 24°09' W 046°27'1 1.8
2017-Aug-13 15:30S 24°09' W 046°28'1 1.6
2017-Aug-13 15:00S 24°09' W 046°27'1 1.5
2017-Aug-13 14:30S 24°10' W 046°26'1 1.6
2017-Aug-13 14:00S 24°10' W 046°26'0 0.9
2017-Aug-13 13:30S 24°10' W 046°25'1 2.0
2017-Aug-13 13:00S 24°10' W 046°26'1 1.4
2017-Aug-13 12:30S 24°11' W 046°25'1 1.5
2017-Aug-13 12:00S 24°11' W 046°25'1 1.3
2017-Aug-13 11:30S 24°11' W 046°24'1 1.5
2017-Aug-13 11:00S 24°12' W 046°24'2 3.6
2017-Aug-13 10:30S 24°14' W 046°24'2 4.3
2017-Aug-13 10:00S 24°16' W 046°24'3 5.3
2017-Aug-13 09:30S 24°18' W 046°25'3 5.0
2017-Aug-13 09:00S 24°21' W 046°26'1 2.9
2017-Aug-13 08:30S 24°22' W 046°26'1 2.8
2017-Aug-13 08:00S 24°22' W 046°25'1 2.6
2017-Aug-13 07:30S 24°21' W 046°23'1 2.7
2017-Aug-13 07:00S 24°21' W 046°22'1 2.7
2017-Aug-13 06:30S 24°20' W 046°20'1 2.7
2017-Aug-13 06:00S 24°20' W 046°19'1 2.6
2017-Aug-13 05:30S 24°19' W 046°18'1 2.7
2017-Aug-13 05:00S 24°19' W 046°16'1 3.0
2017-Aug-13 04:30S 24°18' W 046°15'3 6.4
2017-Aug-13 04:00S 24°15' W 046°13'2 3.8
2017-Aug-13 03:30S 24°15' W 046°15'2 4.1
2017-Aug-13 03:00S 24°15' W 046°17'2 2.9
2017-Aug-13 02:26S 24°14' W 046°18'0 0.4
2017-Aug-13 01:56S 24°14' W 046°19'0 0.1
2017-Aug-13 01:28S 24°14' W 046°19'0 0.2
2017-Aug-13 00:58S 24°14' W 046°19'0 0.1
2017-Aug-13 00:28S 24°14' W 046°19'0 0.2
2017-Aug-12 23:58S 24°14' W 046°19'0 0.2
2017-Aug-12 23:28S 24°14' W 046°19'0 0.2
2017-Aug-12 22:58S 24°14' W 046°19'0 0.2
2017-Aug-12 22:28S 24°14' W 046°19'0 0.1
2017-Aug-12 21:58S 24°14' W 046°19'0 0.7
2017-Aug-12 21:25S 24°14' W 046°18'0 0.6
2017-Aug-12 20:55S 24°14' W 046°18'0 0.1
2017-Aug-12 20:25S 24°14' W 046°18'0 0.5
2017-Aug-12 19:55S 24°14' W 046°18'0 0.2
2017-Aug-12 19:22S 24°14' W 046°19'0 0.2
2017-Aug-12 18:58S 24°14' W 046°19'0 0.5
2017-Aug-12 18:25S 24°14' W 046°19'0 0.5
2017-Aug-12 17:58S 24°14' W 046°19'0 0.2
2017-Aug-12 17:28S 24°14' W 046°19'0 0.6
2017-Aug-12 16:51S 24°14' W 046°19'0 0.4
2017-Aug-12 16:30S 24°14' W 046°19'0 0.4
2017-Aug-12 16:00S 24°14' W 046°18'0 1.0
2017-Aug-12 15:30S 24°14' W 046°18'0 0.1
2017-Aug-12 15:00S 24°14' W 046°18'0 0.0
2017-Aug-12 14:30S 24°14' W 046°18'0 0.0
2017-Aug-12 14:00S 24°14' W 046°18'0 0.0
2017-Aug-12 13:30S 24°14' W 046°18'0 0.1
2017-Aug-12 13:00S 24°14' W 046°18'0 0.0
2017-Aug-12 12:30S 24°14' W 046°18'0 0.0
2017-Aug-12 12:00S 24°14' W 046°18'0 0.0
2017-Aug-12 11:30S 24°14' W 046°18'0 0.0
2017-Aug-12 11:00S 24°14' W 046°18'0 0.1
2017-Aug-12 10:30S 24°14' W 046°18'0 0.1
2017-Aug-12 10:00S 24°14' W 046°18'0 0.1
2017-Aug-12 09:30S 24°14' W 046°18'0 0.0
2017-Aug-12 09:00S 24°14' W 046°18'0 0.1
2017-Aug-12 08:30S 24°14' W 046°18'0 0.0
2017-Aug-12 08:00S 24°14' W 046°18'0 0.0
2017-Aug-12 07:30S 24°14' W 046°18'0 0.0
2017-Aug-12 07:00S 24°14' W 046°18'0 0.0
2017-Aug-12 06:30S 24°14' W 046°18'0 0.0
2017-Aug-12 06:00S 24°14' W 046°18'0 0.0
2017-Aug-12 05:30S 24°14' W 046°18'0 0.0
2017-Aug-12 05:00S 24°14' W 046°18'0 0.0
2017-Aug-12 04:30S 24°14' W 046°18'0 0.0
2017-Aug-12 04:00S 24°14' W 046°18'0 0.0
2017-Aug-12 03:30S 24°14' W 046°18'0 0.1
2017-Aug-12 03:00S 24°14' W 046°18'0 0.1
2017-Aug-12 02:30S 24°14' W 046°18'0 0.1
2017-Aug-12 02:00S 24°14' W 046°18'0 0.1
2017-Aug-12 01:30S 24°14' W 046°18'0 0.1
2017-Aug-12 01:00S 24°14' W 046°18'0 0.0
2017-Aug-12 00:30S 24°14' W 046°18'0 0.1
2017-Aug-12 00:00S 24°14' W 046°18'0 0.0
2017-Aug-11 23:30S 24°14' W 046°18'0 0.1
2017-Aug-11 23:00S 24°14' W 046°18'0 0.1
2017-Aug-11 22:30S 24°14' W 046°18'0 0.1
2017-Aug-11 22:00S 24°14' W 046°18'0 0.1
2017-Aug-11 21:30S 24°14' W 046°18'0 0.1
2017-Aug-11 21:00S 24°14' W 046°18'0 0.1
2017-Aug-11 20:30S 24°14' W 046°18'0 0.0
2017-Aug-11 20:00S 24°14' W 046°18'0 0.0
2017-Aug-11 19:30S 24°14' W 046°18'0 0.1
2017-Aug-11 18:55S 24°14' W 046°18'0 0.0
2017-Aug-11 18:28S 24°14' W 046°18'0 0.0
2017-Aug-11 17:58S 24°14' W 046°18'0 0.3
2017-Aug-11 17:30S 24°14' W 046°18'1 1.0
2017-Aug-11 17:00S 24°15' W 046°17'0 0.5
2017-Aug-11 16:30S 24°14' W 046°18'0 0.2
2017-Aug-11 15:58S 24°14' W 046°18'0 0.0
2017-Aug-11 15:28S 24°14' W 046°18'0 0.1
2017-Aug-11 14:58S 24°14' W 046°18'0 0.0
2017-Aug-11 14:25S 24°14' W 046°18'0 0.0
2017-Aug-11 13:25S 24°14' W 046°18'0 0.1
2017-Aug-11 12:58S 24°14' W 046°18'0 0.0
2017-Aug-11 12:28S 24°14' W 046°18'0 0.0
2017-Aug-11 11:55S 24°14' W 046°18'0 0.0
2017-Aug-11 11:22S 24°14' W 046°18'0 0.2
2017-Aug-11 10:58S 24°14' W 046°17'0 0.4
2017-Aug-11 10:30S 24°14' W 046°17'2 3.2
2017-Aug-11 10:00S 24°16' W 046°18'5 9.1
2017-Aug-11 09:30S 24°20' W 046°21'5 9.8
2017-Aug-11 09:00S 24°24' W 046°20'611.6
2017-Aug-11 08:30S 24°29' W 046°16'611.3
2017-Aug-11 08:00S 24°31' W 046°10'1411.7
2017-Aug-11 06:51S 24°26' W 045°56'  

Dump ship's entire track history